Alexandria, United Kingdom
Current Conditions -  °F | °C
As of 8:20 AM on Thursday 27 Nov 2014 (Local Time) from EGPF Reporting Station
Haze Haze  
Wind Chill: 39°   Ceiling: Unl
Heat Index: 43°   Visibility: 2.9mi
Dew Point: 41°   Wind: 6mph
Humidity: 93%   Direction: 70°ENE
Pressure: 29.65"   Gusts: NA
Location:  55.99°N, 4.59°W
Report Text: EGPF 270820Z AUTO 07005KT 010V100 4700 BR FEW014 06/05 Q1004 RERA
Loading
Personal Weather Stations






























Interactive Weather Map New forecast layout! Learn more

10-Day Weather Forecast

Advertisements
Track Severe Weather on mobile